createdAt,value
2018-11-26T00:00:36.687Z,25.97
2018-11-26T00:03:11.343Z,20.50
2018-11-26T00:05:40.527Z,25.67
2018-11-26T00:08:10.714Z,25.20
2018-11-26T00:10:50.478Z,21.20
2018-11-26T00:13:19.005Z,20.00
2018-11-26T00:15:47.529Z,24.77
2018-11-26T00:18:16.096Z,20.13
2018-11-26T00:20:44.671Z,29.20
2018-11-26T00:23:13.313Z,22.03
2018-11-26T00:25:41.849Z,24.87
2018-11-26T00:28:10.490Z,39.13
2018-11-26T00:30:39.309Z,23.33
2018-11-26T00:33:07.884Z,25.20
2018-11-26T00:35:36.426Z,26.90
2018-11-26T00:38:05.003Z,25.00
2018-11-26T00:40:33.477Z,31.83
2018-11-26T00:43:02.136Z,23.20
2018-11-26T00:45:30.679Z,23.13
2018-11-26T00:47:59.182Z,30.07
2018-11-26T00:50:27.798Z,23.70
2018-11-26T00:52:56.314Z,27.20
2018-11-26T00:55:24.956Z,24.60
2018-11-26T00:57:53.449Z,27.57
2018-11-26T01:00:22.032Z,27.37
2018-11-26T01:02:50.639Z,31.63
2018-11-26T01:05:38.546Z,27.07
2018-11-26T01:08:07.295Z,25.23
2018-11-26T01:10:35.864Z,21.97
2018-11-26T01:13:04.370Z,25.63
2018-11-26T01:15:32.965Z,28.97
2018-11-26T01:18:01.482Z,26.90
2018-11-26T01:20:30.140Z,28.40
2018-11-26T01:22:58.733Z,31.37
2018-11-26T01:25:27.373Z,26.87
2018-11-26T01:27:55.975Z,25.90
2018-11-26T01:30:24.542Z,24.13
2018-11-26T01:32:53.066Z,24.67
2018-11-26T01:35:21.880Z,26.27
2018-11-26T01:37:50.413Z,33.60
2018-11-26T01:40:21.457Z,25.30
2018-11-26T01:42:50.477Z,25.77
2018-11-26T01:45:18.947Z,24.20
2018-11-26T01:47:47.503Z,24.17
2018-11-26T01:50:16.459Z,26.63
2018-11-26T01:52:45.021Z,24.13
2018-11-26T01:55:13.524Z,29.20
2018-11-26T01:57:42.042Z,28.43
2018-11-26T02:00:27.642Z,28.70
2018-11-26T02:02:56.162Z,24.57
2018-11-26T02:05:24.812Z,27.80
2018-11-26T02:07:53.355Z,27.93
2018-11-26T02:10:21.893Z,26.47
2018-11-26T02:12:50.395Z,25.70
2018-11-26T02:15:42.727Z,27.03
2018-11-26T02:18:11.720Z,26.10
2018-11-26T02:20:40.481Z,22.90
2018-11-26T02:23:09.169Z,29.03
2018-11-26T02:25:37.846Z,23.33
2018-11-26T02:28:06.822Z,24.57
2018-11-26T02:30:35.367Z,32.83
2018-11-26T02:33:04.031Z,21.83
2018-11-26T02:35:32.645Z,25.73
2018-11-26T02:38:01.216Z,24.40
2018-11-26T02:40:32.036Z,24.73
2018-11-26T02:43:00.535Z,26.37
2018-11-26T02:45:29.633Z,22.80
2018-11-26T02:47:58.200Z,24.70
2018-11-26T02:50:26.716Z,24.50
2018-11-26T02:52:55.309Z,21.43
2018-11-26T02:55:23.904Z,21.37
2018-11-26T02:57:52.557Z,22.40
2018-11-26T03:00:21.049Z,27.53
2018-11-26T03:02:49.630Z,22.47
2018-11-26T03:05:34.900Z,23.03
2018-11-26T03:08:03.457Z,21.50
2018-11-26T03:10:32.046Z,24.33
2018-11-26T03:13:00.572Z,24.90
2018-11-26T03:15:29.056Z,18.37
2018-11-26T03:17:57.616Z,20.30
2018-11-26T03:20:26.122Z,14.10
2018-11-26T03:22:54.680Z,20.33
2018-11-26T03:25:23.328Z,22.67
2018-11-26T03:27:52.052Z,20.53
2018-11-26T03:30:21.746Z,21.37
2018-11-26T03:32:50.371Z,17.77
2018-11-26T03:35:18.917Z,17.83
2018-11-26T03:37:47.455Z,17.73
2018-11-26T03:40:16.028Z,19.00
2018-11-26T03:42:44.734Z,18.07
2018-11-26T03:45:15.380Z,16.30
2018-11-26T03:47:43.993Z,17.20
2018-11-26T03:50:13.411Z,16.50
2018-11-26T03:52:44.145Z,14.20
2018-11-26T03:55:13.113Z,25.23
2018-11-26T03:57:41.642Z,17.73
2018-11-26T04:00:11.802Z,16.30
2018-11-26T04:02:40.425Z,17.30
2018-11-26T04:05:09.794Z,19.43
2018-11-26T04:07:38.390Z,19.40
2018-11-26T04:10:08.685Z,18.27
2018-11-26T04:12:37.266Z,13.20
2018-11-26T04:15:07.722Z,15.20
2018-11-26T04:17:36.276Z,17.77
2018-11-26T04:20:05.141Z,16.47
2018-11-26T04:22:33.604Z,19.90
2018-11-26T04:25:02.240Z,17.30
2018-11-26T04:27:30.783Z,15.70
2018-11-26T04:29:59.373Z,15.13
2018-11-26T04:32:27.998Z,16.90
2018-11-26T04:34:56.568Z,17.73
2018-11-26T04:37:25.074Z,17.27
2018-11-26T04:39:53.678Z,18.00
2018-11-26T04:42:22.245Z,16.70
2018-11-26T04:44:50.857Z,22.17
2018-11-26T04:47:19.356Z,19.90
2018-11-26T04:49:47.835Z,18.50
2018-11-26T04:52:16.443Z,16.73
2018-11-26T04:54:45.028Z,20.17
2018-11-26T04:57:13.580Z,21.00
2018-11-26T04:59:42.069Z,19.83
2018-11-26T05:02:10.614Z,20.60
2018-11-26T05:04:39.459Z,20.73
2018-11-26T05:07:08.025Z,22.23
2018-11-26T05:09:36.583Z,20.10
2018-11-26T05:12:05.227Z,23.17
2018-11-26T05:14:33.766Z,21.90
2018-11-26T05:17:02.271Z,18.90
2018-11-26T05:19:30.822Z,21.67
2018-11-26T05:21:59.423Z,23.37
2018-11-26T05:24:28.024Z,20.80
2018-11-26T05:26:56.684Z,20.67
2018-11-26T05:29:25.173Z,23.93
2018-11-26T05:31:53.750Z,21.77
2018-11-26T05:34:22.257Z,21.67
2018-11-26T05:36:50.777Z,22.90
2018-11-26T05:39:19.307Z,22.30
2018-11-26T05:41:47.883Z,27.30
2018-11-26T05:44:16.458Z,24.10
2018-11-26T05:46:45.018Z,21.70
2018-11-26T05:49:13.482Z,17.77
2018-11-26T05:51:42.175Z,21.30
2018-11-26T05:54:10.805Z,25.77
2018-11-26T05:56:40.091Z,24.57
2018-11-26T05:59:08.576Z,24.33
2018-11-26T06:01:37.238Z,24.40
2018-11-26T06:04:06.223Z,26.67
2018-11-26T06:06:34.940Z,26.03
2018-11-26T06:09:04.186Z,24.63
2018-11-26T06:11:32.764Z,24.73
2018-11-26T06:14:01.346Z,22.57
2018-11-26T06:16:30.048Z,20.40
2018-11-26T06:18:58.554Z,23.47
2018-11-26T06:21:27.322Z,19.70
2018-11-26T06:23:55.873Z,30.00
2018-11-26T06:26:24.865Z,24.50
2018-11-26T06:28:53.428Z,26.90
2018-11-26T06:31:21.985Z,21.63
2018-11-26T06:33:50.568Z,21.77
2018-11-26T06:36:19.151Z,24.77
2018-11-26T06:38:47.833Z,26.30
2018-11-26T06:41:16.413Z,20.37
2018-11-26T06:43:45.016Z,24.70
2018-11-26T06:46:13.611Z,22.47
2018-11-26T06:48:42.180Z,23.03
2018-11-26T06:51:10.821Z,26.40
2018-11-26T06:53:39.438Z,23.87
2018-11-26T06:56:08.038Z,21.73
2018-11-26T06:58:36.606Z,27.00
2018-11-26T07:01:05.485Z,31.87
2018-11-26T07:03:34.019Z,26.70
2018-11-26T07:06:02.523Z,25.90
2018-11-26T07:08:31.024Z,27.00
2018-11-26T07:10:59.565Z,40.67
2018-11-26T07:13:28.215Z,41.37
2018-11-26T07:15:57.489Z,40.63
2018-11-26T07:18:26.120Z,26.77
2018-11-26T07:20:55.214Z,29.40
2018-11-26T07:23:23.796Z,36.17
2018-11-26T07:25:52.467Z,31.53
2018-11-26T07:28:21.038Z,26.40
2018-11-26T07:30:49.659Z,32.13
2018-11-26T07:33:18.315Z,23.23
2018-11-26T07:35:46.781Z,27.73
2018-11-26T07:38:15.361Z,25.73
2018-11-26T07:40:43.870Z,26.17
2018-11-26T07:43:13.324Z,26.43
2018-11-26T07:45:41.912Z,23.67
2018-11-26T07:48:11.802Z,24.17
2018-11-26T07:50:40.333Z,25.00
2018-11-26T07:53:10.094Z,26.30
2018-11-26T07:55:39.421Z,27.77
2018-11-26T07:58:07.990Z,24.90
2018-11-26T08:00:36.596Z,29.37
2018-11-26T08:03:05.321Z,32.33
2018-11-26T08:05:33.894Z,31.13
2018-11-26T08:08:02.431Z,33.43
2018-11-26T08:10:31.058Z,31.13
2018-11-26T08:12:59.766Z,36.47
2018-11-26T08:15:28.828Z,28.93
2018-11-26T08:17:57.409Z,35.70
2018-11-26T08:20:26.091Z,33.03
2018-11-26T08:22:54.657Z,23.83
2018-11-26T08:25:24.062Z,29.93
2018-11-26T08:27:53.108Z,24.83
2018-11-26T08:30:24.903Z,27.67
2018-11-26T08:32:56.035Z,34.93
2018-11-26T08:35:24.637Z,28.97
2018-11-26T08:37:58.386Z,28.07
2018-11-26T08:40:28.760Z,26.60
2018-11-26T08:43:15.412Z,26.37
2018-11-26T08:45:56.966Z,26.33
2018-11-26T08:48:27.876Z,26.80
2018-11-26T08:50:57.657Z,24.63
2018-11-26T08:53:26.312Z,24.57
2018-11-26T08:55:55.026Z,32.77
2018-11-26T08:58:23.573Z,29.67
2018-11-26T09:00:57.456Z,24.17
2018-11-26T09:04:02.436Z,23.03
2018-11-26T09:06:31.078Z,31.23
2018-11-26T09:08:59.727Z,28.27
2018-11-26T09:11:28.414Z,32.07
2018-11-26T09:13:57.022Z,31.00
2018-11-26T09:16:25.595Z,30.97
2018-11-26T09:18:54.302Z,28.27
2018-11-26T09:21:22.853Z,29.00
2018-11-26T09:23:51.338Z,27.30
2018-11-26T09:26:19.898Z,28.00
2018-11-26T09:28:49.259Z,30.60
2018-11-26T09:31:17.783Z,26.03
2018-11-26T09:33:46.451Z,30.97
2018-11-26T09:36:15.068Z,24.47
2018-11-26T09:38:43.649Z,26.53
2018-11-26T09:41:12.237Z,24.80
2018-11-26T09:43:41.122Z,30.10
2018-11-26T09:46:09.719Z,33.47
2018-11-26T09:48:38.338Z,29.47
2018-11-26T09:51:13.888Z,28.07
2018-11-26T09:53:35.533Z,34.83
2018-11-26T09:56:04.686Z,28.30
2018-11-26T09:58:32.854Z,29.77
2018-11-26T10:01:01.403Z,29.53
2018-11-26T10:03:30.122Z,35.57
2018-11-26T10:05:58.699Z,36.93
2018-11-26T10:08:27.317Z,32.37
2018-11-26T10:10:55.842Z,32.83
2018-11-26T10:13:24.390Z,33.17
2018-11-26T10:15:52.989Z,34.60
2018-11-26T10:18:22.118Z,34.80
2018-11-26T10:20:50.722Z,35.33
2018-11-26T10:23:19.220Z,39.07
2018-11-26T10:25:47.967Z,41.57
2018-11-26T10:28:16.526Z,30.50
2018-11-26T10:30:45.081Z,37.90
2018-11-26T10:33:14.959Z,37.47
2018-11-26T10:35:42.248Z,32.90
2018-11-26T10:38:10.802Z,37.77
2018-11-26T10:40:39.352Z,38.57
2018-11-26T10:43:11.675Z,37.97
2018-11-26T10:45:36.932Z,31.57
2018-11-26T10:48:06.353Z,33.63
2018-11-26T10:50:35.076Z,36.70
2018-11-26T10:53:03.660Z,35.53
2018-11-26T10:55:34.265Z,32.10
2018-11-26T10:58:02.951Z,38.20
2018-11-26T11:00:36.758Z,34.27
2018-11-26T11:03:05.615Z,46.00
2018-11-26T11:05:34.453Z,37.10
2018-11-26T11:08:03.011Z,38.23
2018-11-26T11:10:32.723Z,37.53
2018-11-26T11:13:01.332Z,35.40
2018-11-26T11:15:30.734Z,40.90
2018-11-26T11:17:59.758Z,37.83
2018-11-26T11:20:29.204Z,34.60
2018-11-26T11:22:57.835Z,33.27
2018-11-26T11:25:26.530Z,34.63
2018-11-26T11:27:56.381Z,42.53
2018-11-26T11:30:27.476Z,41.47
2018-11-26T11:32:56.031Z,37.90
2018-11-26T11:35:24.689Z,45.53
2018-11-26T11:37:53.912Z,33.20
2018-11-26T11:40:23.615Z,43.80
2018-11-26T11:42:52.405Z,47.13
2018-11-26T11:45:21.290Z,37.20
2018-11-26T11:47:49.877Z,43.23
2018-11-26T11:50:20.073Z,32.60
2018-11-26T11:52:48.835Z,36.13
2018-11-26T11:55:19.254Z,37.27
2018-11-26T11:57:47.919Z,36.50
2018-11-26T12:00:30.180Z,39.90
2018-11-26T12:02:59.261Z,30.57
2018-11-26T12:05:27.892Z,35.17
2018-11-26T12:07:56.462Z,37.87
2018-11-26T12:10:24.970Z,30.50
2018-11-26T12:12:53.528Z,33.60
2018-11-26T12:15:22.036Z,40.13
2018-11-26T12:17:50.667Z,36.87
2018-11-26T12:20:19.228Z,42.07
2018-11-26T12:22:47.871Z,35.87
2018-11-26T12:25:20.423Z,33.67
2018-11-26T12:27:48.960Z,37.70
2018-11-26T12:30:21.571Z,40.23
2018-11-26T12:32:50.272Z,35.33
2018-11-26T12:35:19.891Z,38.00
2018-11-26T12:37:48.570Z,36.07
2018-11-26T12:40:23.156Z,43.70
2018-11-26T12:42:53.010Z,41.53
2018-11-26T12:45:24.023Z,36.50
2018-11-26T12:47:56.925Z,41.77
2018-11-26T12:50:25.662Z,41.60
2018-11-26T12:52:54.520Z,39.27
2018-11-26T12:55:23.889Z,39.07
2018-11-26T12:57:53.172Z,43.60
2018-11-26T13:00:27.870Z,33.03
2018-11-26T13:03:04.882Z,35.40
2018-11-26T13:05:33.438Z,34.63
2018-11-26T13:08:02.036Z,35.53
2018-11-26T13:10:30.591Z,37.33
2018-11-26T13:12:59.233Z,46.67
2018-11-26T13:15:28.930Z,41.33
2018-11-26T13:17:57.683Z,44.07
2018-11-26T13:20:28.639Z,40.67
2018-11-26T13:22:57.697Z,30.90
2018-11-26T13:25:30.562Z,37.80
2018-11-26T13:28:01.918Z,36.03
2018-11-26T13:30:39.111Z,45.60
2018-11-26T13:33:11.966Z,35.33
2018-11-26T13:35:41.259Z,35.47
2018-11-26T13:38:11.203Z,34.83
2018-11-26T13:40:42.573Z,27.00
2018-11-26T13:43:13.295Z,36.33
2018-11-26T13:45:44.732Z,40.30
2018-11-26T13:48:15.365Z,41.87
2018-11-26T13:50:48.763Z,37.70
2018-11-26T13:53:18.042Z,32.20
2018-11-26T13:55:47.318Z,35.83
2018-11-26T13:58:16.129Z,45.10
2018-11-26T14:00:44.995Z,38.50
2018-11-26T14:03:13.631Z,41.53
2018-11-26T14:05:42.482Z,37.47
2018-11-26T14:08:13.366Z,36.83
2018-11-26T14:10:42.636Z,34.90
2018-11-26T14:13:13.703Z,34.07
2018-11-26T14:15:42.473Z,38.07
2018-11-26T14:18:11.283Z,37.47
2018-11-26T14:20:40.021Z,35.83
2018-11-26T14:23:10.011Z,32.80
2018-11-26T14:25:38.997Z,32.47
2018-11-26T14:28:08.394Z,34.40
2018-11-26T14:30:39.052Z,38.23
2018-11-26T14:33:08.128Z,29.40
2018-11-26T14:35:37.051Z,34.20
2018-11-26T14:38:09.794Z,43.37
2018-11-26T14:40:42.260Z,33.13
2018-11-26T14:43:11.454Z,30.87
2018-11-26T14:45:40.311Z,26.27
2018-11-26T14:48:09.004Z,27.53
2018-11-26T14:50:37.938Z,33.20
2018-11-26T14:53:08.993Z,22.90
2018-11-26T14:55:38.699Z,22.00
2018-11-26T14:58:08.388Z,25.03
2018-11-26T15:00:37.187Z,22.63
2018-11-26T15:03:06.474Z,24.27
2018-11-26T15:05:35.194Z,24.40
2018-11-26T15:08:03.926Z,26.00
2018-11-26T15:10:32.579Z,26.17
2018-11-26T15:13:01.304Z,25.10
2018-11-26T15:15:29.902Z,26.50
2018-11-26T15:17:58.519Z,24.03
2018-11-26T15:20:28.465Z,22.90
2018-11-26T15:22:58.031Z,25.23
2018-11-26T15:25:30.695Z,28.70
2018-11-26T15:28:07.473Z,22.80
2018-11-26T15:30:36.082Z,24.53
2018-11-26T15:33:05.148Z,33.77
2018-11-26T15:35:33.827Z,24.30
2018-11-26T15:38:02.632Z,38.90
2018-11-26T15:40:31.252Z,25.60
2018-11-26T15:42:59.982Z,28.80
2018-11-26T15:45:29.806Z,25.80
2018-11-26T15:48:00.390Z,28.43
2018-11-26T15:50:31.900Z,23.37
2018-11-26T15:53:00.900Z,29.50
2018-11-26T15:55:29.539Z,39.07
2018-11-26T15:57:58.155Z,29.70
2018-11-26T16:00:27.153Z,30.47
2018-11-26T16:02:55.724Z,32.97
2018-11-26T16:05:26.298Z,32.47
2018-11-26T16:07:56.599Z,31.90
2018-11-26T16:10:25.214Z,31.70
2018-11-26T16:12:55.547Z,27.60
2018-11-26T16:15:25.678Z,25.80
2018-11-26T16:17:55.702Z,26.33
2018-11-26T16:20:25.629Z,27.10
2018-11-26T16:22:54.393Z,27.40
2018-11-26T16:25:24.070Z,25.43
2018-11-26T16:27:52.644Z,24.93
2018-11-26T16:30:21.283Z,31.77
2018-11-26T16:32:53.063Z,37.60
2018-11-26T16:35:31.634Z,25.90
2018-11-26T16:38:00.363Z,31.73
2018-11-26T16:40:28.973Z,26.23
2018-11-26T16:42:57.500Z,34.97
2018-11-26T16:45:27.378Z,26.33
2018-11-26T16:47:57.758Z,32.07
2018-11-26T16:50:28.648Z,23.93
2018-11-26T16:52:57.236Z,26.30
2018-11-26T16:55:25.950Z,28.90
2018-11-26T16:57:54.903Z,25.10
2018-11-26T17:00:24.766Z,26.00
2018-11-26T17:02:54.685Z,31.23
2018-11-26T17:05:40.902Z,30.33
2018-11-26T17:08:12.864Z,27.70
2018-11-26T17:10:41.720Z,23.67
2018-11-26T17:13:12.207Z,25.77
2018-11-26T17:15:41.394Z,23.60
2018-11-26T17:18:10.634Z,25.03
2018-11-26T17:20:39.459Z,33.60
2018-11-26T17:23:08.286Z,23.60
2018-11-26T17:25:36.960Z,28.50
2018-11-26T17:28:05.644Z,27.43
2018-11-26T17:30:34.302Z,29.73
2018-11-26T17:33:04.806Z,36.80
2018-11-26T17:35:34.291Z,36.07
2018-11-26T17:38:03.247Z,35.20
2018-11-26T17:40:34.652Z,35.00
2018-11-26T17:43:05.715Z,27.83
2018-11-26T17:45:35.625Z,28.47
2018-11-26T17:48:04.931Z,26.30
2018-11-26T17:50:44.524Z,30.20
2018-11-26T17:53:19.523Z,36.83
2018-11-26T17:55:53.297Z,34.07
2018-11-26T17:58:25.618Z,35.00
2018-11-26T18:01:35.523Z,25.40
2018-11-26T18:04:04.355Z,25.03
2018-11-26T18:06:33.953Z,31.00
2018-11-26T18:09:03.558Z,36.63
2018-11-26T18:11:32.209Z,40.70
2018-11-26T18:14:02.873Z,32.77
2018-11-26T18:16:37.386Z,37.73
2018-11-26T18:19:11.234Z,35.63
2018-11-26T18:21:47.623Z,34.83
2018-11-26T18:24:16.676Z,37.47
2018-11-26T18:26:46.313Z,31.60
2018-11-26T18:29:22.401Z,27.37
2018-11-26T18:31:54.551Z,29.23
2018-11-26T18:34:30.233Z,28.93
2018-11-26T18:37:09.181Z,33.60
2018-11-26T18:39:42.539Z,32.20
2018-11-26T18:42:42.291Z,26.23
2018-11-26T18:45:19.589Z,29.53
2018-11-26T18:47:52.233Z,31.50
2018-11-26T18:50:22.637Z,31.40
2018-11-26T18:52:52.300Z,30.97
2018-11-26T18:55:21.422Z,38.70
2018-11-26T18:57:50.571Z,32.27
2018-11-26T19:00:22.076Z,38.00
2018-11-26T19:02:55.166Z,38.17
2018-11-26T19:05:24.798Z,37.77
2018-11-26T19:07:55.118Z,34.30
2018-11-26T19:10:33.808Z,40.40
2018-11-26T19:13:16.752Z,36.30
2018-11-26T19:15:49.759Z,33.57
2018-11-26T19:18:26.202Z,41.33
2018-11-26T19:20:57.562Z,43.93
2018-11-26T19:23:37.353Z,48.57
2018-11-26T19:26:17.964Z,43.10
2018-11-26T19:28:49.061Z,39.80
2018-11-26T19:31:19.583Z,34.10
2018-11-26T19:33:49.397Z,56.23
2018-11-26T19:36:20.411Z,43.60
2018-11-26T19:38:51.045Z,43.27
2018-11-26T19:41:22.120Z,45.50
2018-11-26T19:43:51.391Z,51.93
2018-11-26T19:46:20.384Z,50.63
2018-11-26T19:48:51.166Z,51.67
2018-11-26T19:51:22.669Z,45.40
2018-11-26T19:53:53.014Z,36.37
2018-11-26T19:56:52.372Z,41.30
2018-11-26T19:59:22.647Z,36.50
2018-11-26T20:01:52.438Z,31.50
2018-11-26T20:04:32.178Z,32.93
2018-11-26T20:07:02.544Z,32.93
2018-11-26T20:09:34.132Z,40.20
2018-11-26T20:12:05.195Z,37.90
2018-11-26T20:14:36.030Z,41.00
2018-11-26T20:17:05.888Z,41.43
2018-11-26T20:19:35.287Z,42.00
2018-11-26T20:22:04.544Z,34.93
2018-11-26T20:24:34.141Z,49.17
2018-11-26T20:27:04.064Z,39.93
2018-11-26T20:29:34.589Z,33.00
2018-11-26T20:32:03.388Z,37.00
2018-11-26T20:34:32.195Z,39.10
2018-11-26T20:37:01.290Z,40.30
2018-11-26T20:39:30.844Z,41.23
2018-11-26T20:42:03.830Z,36.70
2018-11-26T20:44:32.559Z,36.87
2018-11-26T20:47:04.702Z,41.77
2018-11-26T20:49:34.717Z,37.63
2018-11-26T20:52:04.904Z,47.70
2018-11-26T20:54:33.562Z,41.63
2018-11-26T20:57:02.250Z,38.00
2018-11-26T20:59:30.953Z,37.80
2018-11-26T21:01:59.523Z,38.90
2018-11-26T21:04:28.136Z,39.57
2018-11-26T21:06:57.487Z,44.67
2018-11-26T21:09:26.131Z,46.30
2018-11-26T21:11:54.808Z,38.37
2018-11-26T21:14:23.382Z,41.20
2018-11-26T21:16:51.995Z,39.13
2018-11-26T21:19:20.571Z,34.53
2018-11-26T21:21:49.117Z,40.23
2018-11-26T21:24:17.678Z,39.23
2018-11-26T21:26:46.255Z,39.20
2018-11-26T21:29:15.029Z,33.43
2018-11-26T21:31:43.472Z,33.77
2018-11-26T21:34:12.257Z,53.33
2018-11-26T21:36:40.946Z,41.43
2018-11-26T21:39:10.521Z,38.13
2018-11-26T21:41:39.218Z,44.33
2018-11-26T21:44:07.843Z,48.17
2018-11-26T21:46:36.415Z,42.30
2018-11-26T21:49:05.107Z,34.30
2018-11-26T21:51:33.664Z,29.47
2018-11-26T21:54:02.301Z,39.23
2018-11-26T21:56:30.855Z,37.13
2018-11-26T21:58:59.434Z,38.07
2018-11-26T22:01:27.986Z,37.03
2018-11-26T22:03:56.572Z,45.97
2018-11-26T22:06:25.217Z,33.33
2018-11-26T22:08:53.780Z,35.57
2018-11-26T22:11:22.369Z,40.63
2018-11-26T22:13:50.864Z,44.80
2018-11-26T22:16:19.359Z,42.47
2018-11-26T22:18:47.953Z,46.77
2018-11-26T22:21:16.590Z,45.00
2018-11-26T22:23:45.175Z,48.37
2018-11-26T22:26:13.708Z,39.60
2018-11-26T22:28:42.299Z,39.23
2018-11-26T22:31:11.041Z,46.50
2018-11-26T22:33:39.636Z,52.77
2018-11-26T22:36:08.372Z,33.23
2018-11-26T22:38:36.916Z,36.67
2018-11-26T22:41:06.330Z,37.70
2018-11-26T22:43:34.844Z,33.67
2018-11-26T22:46:03.441Z,39.57
2018-11-26T22:48:32.079Z,36.87
2018-11-26T22:51:00.665Z,31.60
2018-11-26T22:53:29.208Z,35.87
2018-11-26T22:55:57.770Z,32.97
2018-11-26T22:58:26.401Z,48.20
2018-11-26T23:00:55.223Z,29.40
2018-11-26T23:03:25.137Z,28.17
2018-11-26T23:05:53.744Z,33.60
2018-11-26T23:08:22.335Z,30.43
2018-11-26T23:10:50.944Z,32.47
2018-11-26T23:13:19.547Z,34.13
2018-11-26T23:15:48.228Z,30.97
2018-11-26T23:18:16.787Z,26.33
2018-11-26T23:20:45.390Z,30.53
2018-11-26T23:23:14.053Z,53.27
2018-11-26T23:25:42.750Z,38.63
2018-11-26T23:28:11.419Z,50.40
2018-11-26T23:30:39.924Z,33.50
2018-11-26T23:33:08.945Z,54.10
2018-11-26T23:35:37.497Z,47.67
2018-11-26T23:38:06.286Z,57.93
2018-11-26T23:40:35.861Z,44.90
2018-11-26T23:43:04.469Z,43.83
2018-11-26T23:45:33.040Z,36.67
2018-11-26T23:48:01.596Z,37.63
2018-11-26T23:50:30.206Z,35.33
2018-11-26T23:52:58.760Z,53.33
2018-11-26T23:55:27.334Z,34.60
2018-11-26T23:57:55.883Z,39.87
